Time;durP1;ratioP1;P1;durP2;ratioP2;P2;SDS_P1;SDS_P2;PMS_P1;PMS_P2;Temp;Humidity;BMP_temperature;BMP_pressure;BME280_temperature;BME280_humidity;BME280_pressure;Samples;Min_cycle;Max_cycle;Signal;HPM_P1;HPM_P2
2022/03/29 00:00:39;;;;;;;134.43;65.60;;;;;;;;;;5101679;28;20449;-91
2022/03/29 00:03:06;;;;;;;136.30;66.47;;;;;;;;;;5099931;28;20461;-89
2022/03/29 00:05:33;;;;;;;135.10;66.40;;;;;;;;;;5100041;28;20470;-88
2022/03/29 00:08:01;;;;;;;129.03;62.93;;;;;;;;;;5101686;28;20441;-88
2022/03/29 00:10:27;;;;;;;129.67;62.10;;;;;;;;;;5102405;28;20466;-88
2022/03/29 00:12:54;;;;;;;131.47;63.43;;;;;;;;;;5103452;28;20440;-88
2022/03/29 00:15:21;;;;;;;129.33;62.13;;;;;;;;;;5105506;28;21079;-87
2022/03/29 00:20:50;;;;;;;125.57;62.80;;;;;;;;;;5105796;28;20422;-88
2022/03/29 00:23:19;;;;;;;130.33;63.17;;;;;;;;;;5104688;28;21224;-88
2022/03/29 00:25:45;;;;;;;125.27;60.20;;;;;;;;;;5123827;28;20452;-88
2022/03/29 00:28:13;;;;;;;132.00;64.10;;;;;;;;;;5105103;28;20436;-89
2022/03/29 00:30:40;;;;;;;129.53;64.30;;;;;;;;;;5105346;28;20479;-88
2022/03/29 00:33:07;;;;;;;127.77;60.80;;;;;;;;;;5106296;28;20840;-88
2022/03/29 00:35:34;;;;;;;130.60;61.50;;;;;;;;;;5106183;28;20523;-88
2022/03/29 00:38:00;;;;;;;125.27;61.10;;;;;;;;;;5105641;28;21227;-88
2022/03/29 00:40:28;;;;;;;132.23;61.57;;;;;;;;;;5105284;28;20468;-88
2022/03/29 00:42:55;;;;;;;129.27;61.00;;;;;;;;;;5104727;28;20972;-88
2022/03/29 00:45:21;;;;;;;127.80;61.40;;;;;;;;;;5105528;28;20437;-90
2022/03/29 00:47:48;;;;;;;136.20;62.87;;;;;;;;;;5103119;28;20453;-89
2022/03/29 00:50:14;;;;;;;127.50;61.47;;;;;;;;;;5103054;28;20433;-90
2022/03/29 00:52:41;;;;;;;128.63;61.47;;;;;;;;;;5085107;28;20495;-90
2022/03/29 00:55:07;;;;;;;129.70;61.67;;;;;;;;;;5103034;28;20565;-91
2022/03/29 00:57:36;;;;;;;135.43;64.70;;;;;;;;;;5106505;28;20513;-89
2022/03/29 01:00:04;;;;;;;131.23;63.50;;;;;;;;;;5107534;28;20445;-88
2022/03/29 01:02:30;;;;;;;128.07;63.53;;;;;;;;;;5104050;28;20457;-89
2022/03/29 01:04:57;;;;;;;130.50;62.70;;;;;;;;;;5103831;28;20448;-88
2022/03/29 01:07:24;;;;;;;130.17;62.43;;;;;;;;;;5104111;28;20449;-89
2022/03/29 01:09:51;;;;;;;128.50;61.77;;;;;;;;;;5104416;28;20471;-89
2022/03/29 01:12:17;;;;;;;129.17;62.70;;;;;;;;;;5104661;28;20448;-89
2022/03/29 01:14:45;;;;;;;134.50;64.90;;;;;;;;;;5105069;28;20485;-89
2022/03/29 01:19:58;;;;;;;125.47;60.50;;;;;;;;;;5108868;28;20459;-89
2022/03/29 01:22:26;;;;;;;129.03;61.27;;;;;;;;;;5104803;28;20474;-88
2022/03/29 01:24:53;;;;;;;124.70;60.27;;;;;;;;;;5103849;28;20444;-88
2022/03/29 01:27:20;;;;;;;124.77;61.30;;;;;;;;;;5102947;28;20445;-88
2022/03/29 01:29:47;;;;;;;128.67;61.63;;;;;;;;;;5103313;28;20429;-88
2022/03/29 01:32:14;;;;;;;124.60;59.90;;;;;;;;;;5108607;28;20464;-88
2022/03/29 01:34:41;;;;;;;124.43;60.70;;;;;;;;;;5113468;28;20510;-88
2022/03/29 01:37:08;;;;;;;125.93;60.90;;;;;;;;;;5105080;28;20440;-89
2022/03/29 01:39:37;;;;;;;131.10;61.70;;;;;;;;;;5104478;28;20445;-88
2022/03/29 01:42:04;;;;;;;142.40;61.50;;;;;;;;;;5100086;28;20483;-88
2022/03/29 01:44:31;;;;;;;129.70;62.70;;;;;;;;;;5103147;28;20433;-88
2022/03/29 01:46:57;;;;;;;130.83;59.80;;;;;;;;;;5104010;28;20460;-88
2022/03/29 01:49:24;;;;;;;127.10;62.20;;;;;;;;;;5103054;28;21064;-88
2022/03/29 01:51:50;;;;;;;134.10;63.20;;;;;;;;;;5103836;28;20441;-88
2022/03/29 01:54:17;;;;;;;128.50;61.85;;;;;;;;;;5103582;28;21039;-88
2022/03/29 01:56:45;;;;;;;126.90;60.50;;;;;;;;;;5104018;28;20480;-88
2022/03/29 01:59:12;;;;;;;126.27;61.03;;;;;;;;;;5103738;28;20462;-88
2022/03/29 02:01:39;;;;;;;131.10;60.97;;;;;;;;;;5104485;28;20461;-88
2022/03/29 02:04:06;;;;;;;128.23;61.77;;;;;;;;;;5104120;28;20531;-88
2022/03/29 02:06:32;;;;;;;137.47;62.00;;;;;;;;;;5123493;28;20448;-88
2022/03/29 02:08:59;;;;;;;129.67;62.47;;;;;;;;;;5118917;28;20436;-87
2022/03/29 02:11:26;;;;;;;130.50;62.80;;;;;;;;;;5103068;28;20471;-87
2022/03/29 02:13:54;;;;;;;127.57;61.37;;;;;;;;;;5104361;28;20484;-88
2022/03/29 02:16:20;;;;;;;137.00;61.43;;;;;;;;;;5103904;28;20496;-88
2022/03/29 02:18:47;;;;;;;126.53;60.73;;;;;;;;;;5103759;28;20467;-88
2022/03/29 02:21:14;;;;;;;126.17;61.10;;;;;;;;;;5107563;28;20464;-88
2022/03/29 02:23:41;;;;;;;126.40;60.90;;;;;;;;;;5123566;28;20465;-89
2022/03/29 02:26:07;;;;;;;126.10;61.90;;;;;;;;;;5103317;28;21160;-89
2022/03/29 02:28:34;;;;;;;126.97;62.37;;;;;;;;;;5103003;28;20523;-88
2022/03/29 02:31:02;;;;;;;127.00;62.10;;;;;;;;;;5102339;28;20980;-88
2022/03/29 02:33:28;;;;;;;134.27;62.80;;;;;;;;;;5100970;28;20449;-88
2022/03/29 02:35:55;;;;;;;132.67;62.50;;;;;;;;;;5100316;28;20489;-88
2022/03/29 02:38:21;;;;;;;132.23;61.77;;;;;;;;;;5119702;28;20452;-88
2022/03/29 02:40:48;;;;;;;124.90;60.53;;;;;;;;;;5106090;28;20984;-88
2022/03/29 02:43:15;;;;;;;124.87;59.57;;;;;;;;;;5103387;28;20441;-88
2022/03/29 02:45:41;;;;;;;126.63;60.37;;;;;;;;;;5103059;28;20445;-88
2022/03/29 02:48:10;;;;;;;131.60;61.87;;;;;;;;;;5103235;28;20971;-88
2022/03/29 02:50:37;;;;;;;126.57;60.60;;;;;;;;;;5103163;28;20465;-91
2022/03/29 02:53:04;;;;;;;124.97;60.03;;;;;;;;;;5084027;28;20483;-91
2022/03/29 02:55:31;;;;;;;126.37;59.60;;;;;;;;;;5102763;28;20485;-89
2022/03/29 02:57:58;;;;;;;132.77;61.73;;;;;;;;;;5082900;28;20477;-88
2022/03/29 03:00:24;;;;;;;124.00;59.03;;;;;;;;;;5095256;28;20440;-88
2022/03/29 03:02:53;;;;;;;124.33;61.43;;;;;;;;;;5101414;28;20567;-89
2022/03/29 03:05:21;;;;;;;124.07;60.27;;;;;;;;;;5101927;28;20444;-89
2022/03/29 03:07:48;;;;;;;131.33;61.13;;;;;;;;;;5103324;28;20444;-88
2022/03/29 03:10:15;;;;;;;123.07;58.40;;;;;;;;;;5103490;28;20448;-88
2022/03/29 03:12:42;;;;;;;126.73;60.90;;;;;;;;;;5108939;28;20459;-88
2022/03/29 03:15:10;;;;;;;126.00;61.07;;;;;;;;;;5111827;28;21030;-87
2022/03/29 03:17:37;;;;;;;124.73;59.10;;;;;;;;;;5103396;28;20448;-87
2022/03/29 03:20:04;;;;;;;132.83;64.10;;;;;;;;;;5103088;28;20437;-88
2022/03/29 03:22:33;;;;;;;129.20;59.63;;;;;;;;;;5101975;28;20516;-88
2022/03/29 03:25:00;;;;;;;127.07;62.27;;;;;;;;;;5102043;28;20448;-88
2022/03/29 03:27:27;;;;;;;131.53;61.30;;;;;;;;;;5103109;28;20440;-88
2022/03/29 03:29:53;;;;;;;124.90;60.63;;;;;;;;;;5117606;28;20890;-88
2022/03/29 03:32:19;;;;;;;129.60;61.53;;;;;;;;;;5102720;28;20449;-88
2022/03/29 03:34:46;;;;;;;123.67;59.50;;;;;;;;;;5103051;28;20437;-88
2022/03/29 03:37:12;;;;;;;127.40;62.10;;;;;;;;;;5102027;28;20445;-87
2022/03/29 03:39:40;;;;;;;129.90;61.03;;;;;;;;;;5101558;28;20470;-88
2022/03/29 03:42:09;;;;;;;126.63;61.30;;;;;;;;;;5101001;28;21009;-88
2022/03/29 03:44:36;;;;;;;126.77;60.40;;;;;;;;;;5115552;28;20460;-89
2022/03/29 03:47:03;;;;;;;134.23;61.83;;;;;;;;;;5102314;28;20453;-89
2022/03/29 03:49:29;;;;;;;138.67;61.83;;;;;;;;;;5105884;28;20436;-88
2022/03/29 03:51:56;;;;;;;128.43;60.70;;;;;;;;;;5106406;28;20466;-89
2022/03/29 03:54:22;;;;;;;127.77;61.20;;;;;;;;;;5106833;28;20805;-89
2022/03/29 03:56:50;;;;;;;133.17;62.70;;;;;;;;;;5096849;28;20549;-88
2022/03/29 03:59:16;;;;;;;129.13;61.80;;;;;;;;;;5118482;28;20463;-89
2022/03/29 04:01:43;;;;;;;128.03;61.93;;;;;;;;;;5106569;28;20952;-88
2022/03/29 04:04:09;;;;;;;124.10;58.73;;;;;;;;;;5105668;28;20517;-89
2022/03/29 04:06:36;;;;;;;124.87;61.30;;;;;;;;;;5104223;28;20517;-89
2022/03/29 04:09:02;;;;;;;127.97;59.40;;;;;;;;;;5104071;28;20445;-88
2022/03/29 04:11:29;;;;;;;130.87;62.00;;;;;;;;;;5104891;28;20452;-88
2022/03/29 04:13:58;;;;;;;133.60;61.97;;;;;;;;;;5105538;28;20441;-87
2022/03/29 04:16:25;;;;;;;134.43;61.33;;;;;;;;;;5104416;28;20591;-88
2022/03/29 04:18:51;;;;;;;128.37;61.57;;;;;;;;;;5106289;28;20448;-88
2022/03/29 04:21:18;;;;;;;130.60;62.63;;;;;;;;;;5105933;28;20440;-88
2022/03/29 04:23:44;;;;;;;129.47;62.67;;;;;;;;;;5106576;28;20864;-88
2022/03/29 04:26:11;;;;;;;133.93;64.90;;;;;;;;;;5105711;28;20440;-88
2022/03/29 04:28:37;;;;;;;129.93;61.90;;;;;;;;;;5105817;28;20852;-88
2022/03/29 04:31:05;;;;;;;126.27;61.57;;;;;;;;;;5106038;28;20440;-88
2022/03/29 04:33:32;;;;;;;132.97;61.67;;;;;;;;;;5111573;28;21369;-88
2022/03/29 04:35:58;;;;;;;132.93;61.63;;;;;;;;;;5114751;28;20934;-88
2022/03/29 04:38:25;;;;;;;130.73;62.50;;;;;;;;;;5105042;28;20877;-88
2022/03/29 04:40:52;;;;;;;128.67;60.90;;;;;;;;;;5104762;28;20448;-88
2022/03/29 04:43:18;;;;;;;129.20;60.80;;;;;;;;;;5105486;28;20449;-88
2022/03/29 04:45:45;;;;;;;134.93;62.07;;;;;;;;;;5105598;28;20445;-87
2022/03/29 04:48:13;;;;;;;128.18;61.30;;;;;;;;;;5104740;28;20453;-88
2022/03/29 04:50:40;;;;;;;120.57;59.20;;;;;;;;;;5092446;28;20203;-88
2022/03/29 04:53:07;;;;;;;127.97;62.00;;;;;;;;;;5103090;28;20444;-88
2022/03/29 04:55:34;;;;;;;140.53;62.50;;;;;;;;;;5103210;28;20564;-88
2022/03/29 04:58:01;;;;;;;130.87;62.00;;;;;;;;;;5103577;28;20495;-87
2022/03/29 05:00:28;;;;;;;146.43;62.50;;;;;;;;;;5102521;28;20477;-88
2022/03/29 05:02:54;;;;;;;129.97;60.90;;;;;;;;;;5103769;28;20478;-87
2022/03/29 05:05:22;;;;;;;132.17;60.97;;;;;;;;;;5103998;28;20437;-87
2022/03/29 05:07:48;;;;;;;135.10;62.90;;;;;;;;;;5119544;28;20456;-87
2022/03/29 05:10:15;;;;;;;132.23;61.87;;;;;;;;;;5121132;28;20437;-87
2022/03/29 05:12:42;;;;;;;136.27;65.93;;;;;;;;;;5103192;28;21005;-88
2022/03/29 05:15:09;;;;;;;137.47;62.97;;;;;;;;;;5102617;28;20448;-87
2022/03/29 05:17:36;;;;;;;147.83;73.07;;;;;;;;;;5102709;28;20488;-87
2022/03/29 05:20:03;;;;;;;138.03;67.03;;;;;;;;;;5104656;28;20516;-88
2022/03/29 05:22:31;;;;;;;136.50;64.57;;;;;;;;;;5103283;28;20472;-87
2022/03/29 05:24:58;;;;;;;145.20;71.70;;;;;;;;;;5117131;28;20467;-87
2022/03/29 05:27:24;;;;;;;149.77;70.00;;;;;;;;;;5104513;28;20445;-88
2022/03/29 05:29:51;;;;;;;145.60;70.53;;;;;;;;;;5105022;28;20441;-87
2022/03/29 05:32:18;;;;;;;149.20;71.63;;;;;;;;;;5084179;28;20461;-88
2022/03/29 05:34:45;;;;;;;141.83;65.73;;;;;;;;;;5082127;28;20457;-88
2022/03/29 05:37:12;;;;;;;134.40;66.13;;;;;;;;;;5101598;28;21007;-89
2022/03/29 05:39:43;;;;;;;141.67;68.87;;;;;;;;;;5100711;28;21005;-88
2022/03/29 05:42:09;;;;;;;140.13;67.50;;;;;;;;;;5103030;28;21037;-89
2022/03/29 05:44:37;;;;;;;141.53;66.20;;;;;;;;;;5102282;28;20449;-91
2022/03/29 05:49:47;;;;;;;140.93;68.27;;;;;;;;;;5102797;28;20905;-89
2022/03/29 05:52:14;;;;;;;140.53;66.70;;;;;;;;;;5098760;28;20461;-89
2022/03/29 05:54:45;;;;;;;135.17;67.17;;;;;;;;;;5101657;28;20487;-89
2022/03/29 05:57:11;;;;;;;138.13;66.53;;;;;;;;;;5098308;28;20510;-89
2022/03/29 05:59:38;;;;;;;134.73;66.20;;;;;;;;;;5102355;28;21041;-90
2022/03/29 06:02:05;;;;;;;138.57;69.17;;;;;;;;;;5097974;28;20452;-89
2022/03/29 06:04:31;;;;;;;140.87;68.97;;;;;;;;;;5088832;28;20479;-89
2022/03/29 06:06:58;;;;;;;146.83;67.67;;;;;;;;;;5101027;28;20513;-90
2022/03/29 06:09:25;;;;;;;144.23;69.40;;;;;;;;;;5100534;28;20437;-89
2022/03/29 06:11:52;;;;;;;136.93;67.17;;;;;;;;;;5100437;28;20889;-89
2022/03/29 06:14:20;;;;;;;147.43;69.80;;;;;;;;;;5100826;28;20457;-90
2022/03/29 06:16:46;;;;;;;142.57;68.23;;;;;;;;;;5101923;28;20496;-89
2022/03/29 06:19:13;;;;;;;145.67;70.63;;;;;;;;;;5095723;28;20567;-89
2022/03/29 06:21:40;;;;;;;143.97;67.73;;;;;;;;;;5091944;28;20463;-89
2022/03/29 06:24:07;;;;;;;141.33;68.27;;;;;;;;;;5100562;28;20493;-89
2022/03/29 06:26:36;;;;;;;142.30;70.53;;;;;;;;;;5100634;28;20456;-88
2022/03/29 06:29:04;;;;;;;145.30;69.50;;;;;;;;;;5101192;28;20445;-88
2022/03/29 06:31:31;;;;;;;144.23;70.77;;;;;;;;;;5093595;28;20445;-89
2022/03/29 06:33:57;;;;;;;141.10;70.53;;;;;;;;;;5080557;28;20476;-89
2022/03/29 06:36:24;;;;;;;141.10;71.03;;;;;;;;;;5089203;28;20806;-89
2022/03/29 06:38:50;;;;;;;141.80;67.57;;;;;;;;;;5102116;28;20444;-90
2022/03/29 06:41:17;;;;;;;142.90;72.40;;;;;;;;;;5101535;28;20453;-90
2022/03/29 06:43:43;;;;;;;140.30;69.70;;;;;;;;;;5100273;28;20448;-89
2022/03/29 06:46:11;;;;;;;137.53;68.60;;;;;;;;;;5100696;28;20502;-87
2022/03/29 06:48:39;;;;;;;142.30;69.20;;;;;;;;;;5102237;28;20436;-89
2022/03/29 06:51:06;;;;;;;136.07;69.80;;;;;;;;;;5101934;28;20595;-90
2022/03/29 06:53:34;;;;;;;151.70;70.50;;;;;;;;;;5086649;28;20461;-89
2022/03/29 06:56:00;;;;;;;138.00;69.03;;;;;;;;;;5095271;28;20448;-89
2022/03/29 06:58:28;;;;;;;137.40;68.63;;;;;;;;;;5100174;28;20486;-90
2022/03/29 07:00:56;;;;;;;143.20;72.50;;;;;;;;;;5099148;28;20507;-90
2022/03/29 07:03:24;;;;;;;132.57;68.57;;;;;;;;;;5080687;28;22095;-89
2022/03/29 07:05:50;;;;;;;139.67;68.00;;;;;;;;;;5082807;28;20442;-90
2022/03/29 07:08:20;;;;;;;140.77;67.10;;;;;;;;;;5101907;28;20577;-89
2022/03/29 07:13:30;;;;;;;149.53;71.03;;;;;;;;;;5095812;28;20834;-89
2022/03/29 07:15:57;;;;;;;144.53;70.20;;;;;;;;;;5090578;28;20438;-90
2022/03/29 07:18:25;;;;;;;141.27;71.30;;;;;;;;;;5094681;28;20464;-90
2022/03/29 07:20:51;;;;;;;148.90;73.27;;;;;;;;;;5095047;28;20596;-90
2022/03/29 07:23:18;;;;;;;138.50;69.20;;;;;;;;;;5093110;28;20448;-91
2022/03/29 07:25:44;;;;;;;142.50;73.20;;;;;;;;;;5093397;28;20445;-91
2022/03/29 07:28:11;;;;;;;140.73;72.07;;;;;;;;;;5092354;28;20441;-91
2022/03/29 07:30:41;;;;;;;142.83;73.30;;;;;;;;;;5092209;28;20520;-91
2022/03/29 07:33:09;;;;;;;141.80;69.80;;;;;;;;;;5091218;28;20468;-90
2022/03/29 07:35:37;;;;;;;136.30;68.87;;;;;;;;;;5098135;28;20445;-91
2022/03/29 07:38:04;;;;;;;142.50;71.73;;;;;;;;;;5083256;28;20520;-92
2022/03/29 07:40:31;;;;;;;140.50;69.63;;;;;;;;;;5079211;28;20494;-90
2022/03/29 07:42:58;;;;;;;138.67;70.07;;;;;;;;;;5097777;28;20445;-94
2022/03/29 07:45:25;;;;;;;140.07;69.30;;;;;;;;;;5099876;28;20540;-91
2022/03/29 07:47:55;;;;;;;135.80;67.90;;;;;;;;;;5097934;28;20483;-90
2022/03/29 07:50:22;;;;;;;136.27;67.10;;;;;;;;;;5081985;28;20449;-92
2022/03/29 07:52:50;;;;;;;135.97;67.83;;;;;;;;;;5080739;28;20437;-90
2022/03/29 07:55:17;;;;;;;136.27;69.40;;;;;;;;;;5080405;28;20450;-90
2022/03/29 07:57:44;;;;;;;141.17;69.00;;;;;;;;;;5099337;28;20533;-90
2022/03/29 08:00:32;;;;;;;133.30;65.90;;;;;;;;;;5101828;28;20453;-92
2022/03/29 08:02:59;;;;;;;131.00;66.30;;;;;;;;;;5101590;28;20456;-90
2022/03/29 08:05:26;;;;;;;131.37;66.13;;;;;;;;;;5084313;28;20446;-88
2022/03/29 08:07:54;;;;;;;138.90;68.80;;;;;;;;;;5093412;28;20441;-91
2022/03/29 08:10:20;;;;;;;136.70;67.70;;;;;;;;;;5099063;28;20449;-90
2022/03/29 08:12:47;;;;;;;134.57;67.33;;;;;;;;;;5099053;28;20444;-89
2022/03/29 08:15:13;;;;;;;139.07;67.77;;;;;;;;;;5100042;28;20457;-89
2022/03/29 08:17:40;;;;;;;138.70;68.47;;;;;;;;;;5100493;28;20488;-89
2022/03/29 08:20:07;;;;;;;139.10;68.07;;;;;;;;;;5100811;28;20440;-87
2022/03/29 08:22:34;;;;;;;134.93;66.90;;;;;;;;;;5100352;28;20995;-89
2022/03/29 08:25:02;;;;;;;132.50;67.53;;;;;;;;;;5102569;28;20444;-92
2022/03/29 08:27:29;;;;;;;134.77;66.80;;;;;;;;;;5101815;28;20471;-89
2022/03/29 08:29:55;;;;;;;143.57;70.20;;;;;;;;;;5098292;28;20464;-88
2022/03/29 08:32:22;;;;;;;141.20;70.50;;;;;;;;;;5095084;28;20952;-90
2022/03/29 08:34:49;;;;;;;137.93;67.23;;;;;;;;;;5097877;28;20457;-89
2022/03/29 08:37:15;;;;;;;133.67;66.63;;;;;;;;;;5103296;28;20490;-89
2022/03/29 08:39:42;;;;;;;137.50;67.90;;;;;;;;;;5093238;28;20434;-91
2022/03/29 08:42:11;;;;;;;140.90;67.23;;;;;;;;;;5096557;28;20463;-89
2022/03/29 08:44:38;;;;;;;132.73;68.27;;;;;;;;;;5101706;28;21066;-90
2022/03/29 08:47:06;;;;;;;137.40;69.40;;;;;;;;;;5091303;28;20471;-90
2022/03/29 08:49:33;;;;;;;133.73;68.07;;;;;;;;;;5105260;28;20494;-90
2022/03/29 08:51:59;;;;;;;135.17;68.13;;;;;;;;;;5093248;28;20443;-89
2022/03/29 08:54:26;;;;;;;132.40;67.37;;;;;;;;;;5103454;28;20540;-90
2022/03/29 08:56:52;;;;;;;133.03;66.90;;;;;;;;;;5104334;28;20492;-91
2022/03/29 08:59:20;;;;;;;134.87;65.37;;;;;;;;;;5104815;28;20440;-92
2022/03/29 09:01:47;;;;;;;137.00;69.63;;;;;;;;;;5100544;28;20797;-89
2022/03/29 09:04:14;;;;;;;131.83;67.37;;;;;;;;;;5099768;28;20533;-90
2022/03/29 09:07:00;;;;;;;135.60;67.80;;;;;;;;;;5100765;28;20478;-92
2022/03/29 09:09:28;;;;;;;137.20;66.57;;;;;;;;;;5085866;28;20446;-89
2022/03/29 09:11:55;;;;;;;131.07;63.30;;;;;;;;;;5095722;28;20502;-90
2022/03/29 09:14:23;;;;;;;125.30;61.97;;;;;;;;;;5104915;28;20456;-90
2022/03/29 09:16:51;;;;;;;137.27;67.07;;;;;;;;;;5101298;28;20457;-88
2022/03/29 09:19:18;;;;;;;141.93;68.57;;;;;;;;;;5102171;28;20512;-90
2022/03/29 09:21:45;;;;;;;134.47;63.43;;;;;;;;;;5088793;28;20793;-90
2022/03/29 09:24:16;;;;;;;132.03;65.30;;;;;;;;;;5083688;28;20805;-88
2022/03/29 09:26:43;;;;;;;130.87;62.90;;;;;;;;;;5086641;28;20449;-90
2022/03/29 09:29:17;;;;;;;131.60;64.30;;;;;;;;;;5103179;28;20874;-89
2022/03/29 09:31:45;;;;;;;133.53;65.50;;;;;;;;;;5104001;28;20974;-89
2022/03/29 09:34:12;;;;;;;136.57;64.57;;;;;;;;;;5104674;28;21257;-91
2022/03/29 09:36:43;;;;;;;137.43;67.30;;;;;;;;;;5104302;28;20450;-91
2022/03/29 09:39:10;;;;;;;142.07;65.83;;;;;;;;;;5104650;28;20450;-89
2022/03/29 09:41:40;;;;;;;133.80;66.50;;;;;;;;;;5104003;28;20449;-90
2022/03/29 09:44:08;;;;;;;137.20;66.80;;;;;;;;;;5088387;28;20511;-89
2022/03/29 09:46:49;;;;;;;134.00;65.20;;;;;;;;;;5084315;28;20462;-91
2022/03/29 09:49:17;;;;;;;135.50;65.30;;;;;;;;;;5094727;28;20524;-90
2022/03/29 09:51:44;;;;;;;132.60;64.23;;;;;;;;;;5105066;28;20489;-90
2022/03/29 09:54:12;;;;;;;128.67;62.90;;;;;;;;;;5104002;28;20451;-92
2022/03/29 09:56:39;;;;;;;135.83;64.97;;;;;;;;;;5104492;28;20562;-88
2022/03/29 09:59:06;;;;;;;136.87;68.00;;;;;;;;;;5104080;28;20513;-90
2022/03/29 10:01:34;;;;;;;135.40;64.57;;;;;;;;;;5092681;28;20499;-87
2022/03/29 10:04:02;;;;;;;128.90;63.63;;;;;;;;;;5103071;28;20449;-89
2022/03/29 10:06:31;;;;;;;132.23;64.40;;;;;;;;;;5098321;28;20465;-88
2022/03/29 10:11:43;;;;;;;128.27;63.50;;;;;;;;;;5104365;28;20451;-88
2022/03/29 10:14:12;;;;;;;133.80;62.87;;;;;;;;;;5104255;28;20460;-89
2022/03/29 10:16:39;;;;;;;129.93;64.00;;;;;;;;;;5103246;28;22172;-90
2022/03/29 10:19:06;;;;;;;129.50;63.83;;;;;;;;;;5102267;28;20488;-89
2022/03/29 10:21:34;;;;;;;137.00;64.60;;;;;;;;;;5102639;28;20437;-89
2022/03/29 10:24:01;;;;;;;134.87;63.10;;;;;;;;;;5102772;28;20459;-88
2022/03/29 10:26:28;;;;;;;128.40;62.90;;;;;;;;;;5102779;28;20521;-88
2022/03/29 10:28:54;;;;;;;139.10;63.53;;;;;;;;;;5099350;28;20433;-89
2022/03/29 10:31:29;;;;;;;138.63;68.53;;;;;;;;;;5101714;28;20441;-89
2022/03/29 10:34:12;;;;;;;131.50;64.13;;;;;;;;;;5099373;28;20473;-89
2022/03/29 10:36:53;;;;;;;131.77;62.97;;;;;;;;;;5099517;28;20561;-90
2022/03/29 10:39:22;;;;;;;131.37;65.80;;;;;;;;;;5097969;28;20480;-89
2022/03/29 10:41:50;;;;;;;132.40;63.40;;;;;;;;;;5101104;28;20472;-89
2022/03/29 10:44:16;;;;;;;131.57;64.57;;;;;;;;;;5102453;28;20468;-89
2022/03/29 10:46:45;;;;;;;133.73;62.97;;;;;;;;;;5103753;28;20455;-89
2022/03/29 10:49:20;;;;;;;138.87;65.20;;;;;;;;;;5102747;28;20453;-92
2022/03/29 10:51:47;;;;;;;132.80;64.90;;;;;;;;;;5103301;28;20466;-89
2022/03/29 10:54:37;;;;;;;136.73;64.67;;;;;;;;;;5103132;28;20445;-90
2022/03/29 10:57:06;;;;;;;135.17;64.23;;;;;;;;;;5078057;28;20515;-89
2022/03/29 10:59:33;;;;;;;141.20;65.00;;;;;;;;;;5101614;28;20475;-90
2022/03/29 11:02:10;;;;;;;141.93;67.10;;;;;;;;;;5099113;28;20489;-89
2022/03/29 11:04:37;;;;;;;136.77;63.00;;;;;;;;;;5101204;28;21152;-89
2022/03/29 11:07:14;;;;;;;139.33;62.60;;;;;;;;;;5102351;28;20460;-90
2022/03/29 11:09:44;;;;;;;130.83;62.80;;;;;;;;;;5103314;28;20849;-90
2022/03/29 11:12:25;;;;;;;139.53;63.00;;;;;;;;;;5102391;28;20445;-90
2022/03/29 11:14:53;;;;;;;130.27;62.67;;;;;;;;;;5069256;28;20790;-91
2022/03/29 11:17:36;;;;;;;135.20;64.17;;;;;;;;;;5079633;28;21013;-90
2022/03/29 11:20:23;;;;;;;130.93;64.03;;;;;;;;;;5081375;28;20593;-91
2022/03/29 11:22:50;;;;;;;134.77;64.97;;;;;;;;;;5083597;28;21313;-92
2022/03/29 11:25:22;;;;;;;139.30;65.20;;;;;;;;;;5099494;28;20452;-89
2022/03/29 11:27:49;;;;;;;139.80;66.20;;;;;;;;;;5098936;28;21311;-90
2022/03/29 11:30:17;;;;;;;138.60;68.70;;;;;;;;;;5097839;28;20535;-90
2022/03/29 11:32:45;;;;;;;130.53;62.50;;;;;;;;;;5099222;28;20457;-90
2022/03/29 11:35:12;;;;;;;141.07;75.90;;;;;;;;;;5101169;28;20450;-90
2022/03/29 11:37:41;;;;;;;134.70;65.40;;;;;;;;;;5098531;28;20518;-90
2022/03/29 11:40:09;;;;;;;135.17;65.33;;;;;;;;;;5099434;28;20446;-89
2022/03/29 11:42:45;;;;;;;144.03;77.53;;;;;;;;;;5099640;28;20506;-91
2022/03/29 11:45:12;;;;;;;139.13;68.27;;;;;;;;;;5099166;28;20516;-89
2022/03/29 11:47:40;;;;;;;145.63;66.40;;;;;;;;;;5098224;28;20832;-91
2022/03/29 11:50:07;;;;;;;135.20;64.10;;;;;;;;;;5097887;28;20448;-90
2022/03/29 11:52:34;;;;;;;145.00;65.20;;;;;;;;;;5100072;28;20511;-91
2022/03/29 11:55:00;;;;;;;136.20;67.70;;;;;;;;;;5095338;28;20536;-90
2022/03/29 11:57:28;;;;;;;132.80;66.80;;;;;;;;;;5094067;28;20503;-90
2022/03/29 11:59:55;;;;;;;133.73;62.90;;;;;;;;;;5101033;28;20479;-90
2022/03/29 12:02:23;;;;;;;131.70;62.80;;;;;;;;;;5101841;28;20479;-90
2022/03/29 12:04:51;;;;;;;130.47;62.87;;;;;;;;;;5101791;28;20444;-91
2022/03/29 12:07:17;;;;;;;131.27;64.50;;;;;;;;;;5101203;28;20473;-90
2022/03/29 12:09:47;;;;;;;133.10;64.43;;;;;;;;;;5103468;28;20456;-89
2022/03/29 12:12:14;;;;;;;136.30;65.17;;;;;;;;;;5105566;28;20536;-90
2022/03/29 12:14:41;;;;;;;134.60;62.40;;;;;;;;;;5106741;28;20474;-92
2022/03/29 12:17:08;;;;;;;135.20;63.27;;;;;;;;;;5105877;28;20456;-90
2022/03/29 12:19:35;;;;;;;131.90;62.23;;;;;;;;;;5105910;28;20551;-91
2022/03/29 12:22:04;;;;;;;136.33;64.07;;;;;;;;;;5105384;28;20440;-90
2022/03/29 12:24:32;;;;;;;134.67;66.90;;;;;;;;;;5100714;28;21180;-92
2022/03/29 12:27:04;;;;;;;137.20;65.40;;;;;;;;;;5101106;28;20449;-94
2022/03/29 12:29:31;;;;;;;129.70;64.50;;;;;;;;;;5101554;28;20456;-93
2022/03/29 12:31:57;;;;;;;139.60;65.50;;;;;;;;;;5102660;28;20448;-92
2022/03/29 12:34:25;;;;;;;135.63;65.03;;;;;;;;;;5101392;28;20460;-91
2022/03/29 12:36:53;;;;;;;139.07;64.47;;;;;;;;;;5103065;28;20448;-91
2022/03/29 12:39:21;;;;;;;139.47;65.67;;;;;;;;;;5095893;28;20549;-89
2022/03/29 12:41:51;;;;;;;134.57;66.77;;;;;;;;;;5089958;28;20445;-92
2022/03/29 12:44:27;;;;;;;139.37;69.40;;;;;;;;;;5097915;28;20468;-89
2022/03/29 12:46:54;;;;;;;134.40;65.40;;;;;;;;;;5082578;28;20456;-92
2022/03/29 12:49:21;;;;;;;133.60;62.83;;;;;;;;;;5095136;28;20467;-91
2022/03/29 12:51:53;;;;;;;130.17;64.23;;;;;;;;;;5091447;28;20472;-91
2022/03/29 12:54:21;;;;;;;133.60;64.67;;;;;;;;;;5096535;28;20471;-90
2022/03/29 12:56:48;;;;;;;132.80;64.73;;;;;;;;;;5105541;28;20518;-90
2022/03/29 12:59:28;;;;;;;133.23;64.93;;;;;;;;;;5105650;28;20533;-94
2022/03/29 13:01:59;;;;;;;142.53;63.47;;;;;;;;;;5105421;28;20936;-90
2022/03/29 13:04:35;;;;;;;130.67;63.60;;;;;;;;;;5099342;28;20505;-92
2022/03/29 13:07:01;;;;;;;131.50;64.50;;;;;;;;;;5105079;28;21098;-91
2022/03/29 13:09:29;;;;;;;130.70;63.90;;;;;;;;;;5105324;28;21029;-92
2022/03/29 13:12:09;;;;;;;131.47;65.43;;;;;;;;;;5104652;28;20474;-91
2022/03/29 13:14:36;;;;;;;128.37;62.07;;;;;;;;;;5105544;28;20451;-90
2022/03/29 13:17:02;;;;;;;132.20;63.93;;;;;;;;;;5104611;28;20449;-91
2022/03/29 13:19:29;;;;;;;134.20;64.03;;;;;;;;;;5103397;28;20826;-90
2022/03/29 13:21:59;;;;;;;132.73;64.60;;;;;;;;;;5102490;28;20445;-90
2022/03/29 13:24:34;;;;;;;130.50;63.97;;;;;;;;;;5100497;28;20529;-90
2022/03/29 13:27:02;;;;;;;142.03;64.43;;;;;;;;;;5085091;28;20457;-90
2022/03/29 13:29:31;;;;;;;128.70;65.03;;;;;;;;;;5094923;28;20449;-91
2022/03/29 13:31:58;;;;;;;135.53;63.77;;;;;;;;;;5085606;28;20449;-91
2022/03/29 13:34:24;;;;;;;129.43;64.17;;;;;;;;;;5095281;28;20445;-91
2022/03/29 13:36:51;;;;;;;131.20;64.47;;;;;;;;;;5103636;28;20474;-93
2022/03/29 13:39:18;;;;;;;129.43;63.67;;;;;;;;;;5097928;28;20516;-92
2022/03/29 13:41:44;;;;;;;129.67;62.37;;;;;;;;;;5093274;28;20478;-93
2022/03/29 13:44:13;;;;;;;133.13;64.77;;;;;;;;;;5103088;28;20468;-90
2022/03/29 13:46:39;;;;;;;139.00;63.27;;;;;;;;;;5091723;28;20552;-91
2022/03/29 13:49:06;;;;;;;138.50;62.97;;;;;;;;;;5090160;28;20506;-93
2022/03/29 13:51:34;;;;;;;134.57;62.97;;;;;;;;;;5103921;28;20479;-90
2022/03/29 13:54:01;;;;;;;136.60;66.37;;;;;;;;;;5101177;28;20456;-91
2022/03/29 13:56:31;;;;;;;131.60;63.70;;;;;;;;;;5093163;28;21169;-91
2022/03/29 13:58:57;;;;;;;144.67;69.70;;;;;;;;;;5081613;28;20604;-91
2022/03/29 14:01:25;;;;;;;135.43;65.53;;;;;;;;;;5095710;28;20448;-89
2022/03/29 14:03:52;;;;;;;134.93;64.40;;;;;;;;;;5103639;28;20924;-93
2022/03/29 14:06:19;;;;;;;134.60;64.13;;;;;;;;;;5087794;28;20461;-92
2022/03/29 14:08:46;;;;;;;134.60;65.60;;;;;;;;;;5094648;28;20505;-92
2022/03/29 14:11:12;;;;;;;128.73;63.97;;;;;;;;;;5099334;28;20475;-92
2022/03/29 14:13:41;;;;;;;132.47;64.10;;;;;;;;;;5104249;28;20440;-92
2022/03/29 14:16:09;;;;;;;138.43;68.50;;;;;;;;;;5100268;28;20453;-92
2022/03/29 14:18:37;;;;;;;137.03;67.30;;;;;;;;;;5100849;28;20472;-91
2022/03/29 14:21:03;;;;;;;135.97;66.40;;;;;;;;;;5101698;28;20466;-90